createdAt,value
2023-03-16T00:01:32.284Z,1.98
2023-03-16T00:05:33.818Z,2.00
2023-03-16T00:09:36.613Z,2.35
2023-03-16T00:13:38.043Z,2.10
2023-03-16T00:17:39.575Z,2.33
2023-03-16T00:21:41.026Z,2.35
2023-03-16T00:25:42.500Z,1.77
2023-03-16T00:29:48.409Z,2.30
2023-03-16T00:33:49.889Z,2.00
2023-03-16T00:37:51.564Z,1.90
2023-03-16T00:41:58.244Z,2.55
2023-03-16T00:46:06.806Z,2.47
2023-03-16T00:50:09.257Z,1.95
2023-03-16T00:54:10.728Z,2.55
2023-03-16T00:58:14.876Z,1.75
2023-03-16T01:02:19.297Z,2.67
2023-03-16T01:06:23.733Z,2.72
2023-03-16T01:10:25.574Z,2.22
2023-03-16T01:14:27.397Z,1.95
2023-03-16T01:18:29.061Z,2.05
2023-03-16T01:22:30.528Z,1.83
2023-03-16T01:26:32.282Z,2.40
2023-03-16T01:30:33.795Z,2.00
2023-03-16T01:34:35.466Z,1.65
2023-03-16T01:38:37.441Z,2.08
2023-03-16T01:42:47.467Z,2.22
2023-03-16T01:46:49.245Z,1.60
2023-03-16T01:50:52.506Z,2.22
2023-03-16T01:55:08.555Z,2.50
2023-03-16T01:59:16.330Z,1.90
2023-03-16T02:03:20.156Z,2.22
2023-03-16T02:07:24.631Z,2.47
2023-03-16T02:11:26.718Z,3.05
2023-03-16T02:15:28.274Z,2.13
2023-03-16T02:19:57.113Z,2.30
2023-03-16T02:23:59.912Z,2.83
2023-03-16T02:28:20.083Z,2.20
2023-03-16T02:32:24.299Z,2.08
2023-03-16T02:36:26.467Z,1.88
2023-03-16T02:40:33.606Z,2.10
2023-03-16T02:44:40.605Z,2.05
2023-03-16T02:48:51.116Z,1.75
2023-03-16T02:52:52.554Z,2.17
2023-03-16T02:56:54.294Z,2.45
2023-03-16T03:00:56.859Z,2.60
2023-03-16T03:04:58.394Z,2.47
2023-03-16T03:09:01.937Z,2.28
2023-03-16T03:13:03.898Z,2.97
2023-03-16T03:17:07.379Z,3.00
2023-03-16T03:21:08.838Z,2.30
2023-03-16T03:25:11.510Z,1.88
2023-03-16T03:29:13.033Z,2.80
2023-03-16T03:33:14.545Z,1.77
2023-03-16T03:37:16.478Z,2.05
2023-03-16T03:41:17.940Z,2.35
2023-03-16T03:45:19.642Z,2.13
2023-03-16T03:49:21.107Z,2.40
2023-03-16T03:53:22.636Z,2.40
2023-03-16T03:57:24.094Z,2.30
2023-03-16T04:01:25.533Z,2.95
2023-03-16T04:05:27.561Z,2.22
2023-03-16T04:09:29.078Z,2.25
2023-03-16T04:13:31.114Z,2.53
2023-03-16T04:17:34.299Z,2.60
2023-03-16T04:21:35.782Z,2.75
2023-03-16T04:25:38.585Z,2.88
2023-03-16T04:29:40.104Z,2.33
2023-03-16T04:33:42.328Z,2.85
2023-03-16T04:37:44.081Z,2.05
2023-03-16T04:41:45.591Z,2.45
2023-03-16T04:45:47.059Z,2.22
2023-03-16T04:49:48.518Z,2.45
2023-03-16T04:53:49.954Z,2.42
2023-03-16T04:57:52.456Z,2.97
2023-03-16T05:01:54.004Z,2.28
2023-03-16T05:05:55.699Z,1.95
2023-03-16T05:09:57.178Z,2.20
2023-03-16T05:13:58.638Z,2.60
2023-03-16T05:18:00.252Z,2.20
2023-03-16T05:22:01.757Z,2.03
2023-03-16T05:26:03.619Z,2.55
2023-03-16T05:30:05.648Z,2.53
2023-03-16T05:34:07.169Z,2.13
2023-03-16T05:38:10.031Z,2.88
2023-03-16T05:42:11.520Z,2.55
2023-03-16T05:46:13.689Z,2.60
2023-03-16T05:50:16.974Z,2.78
2023-03-16T05:54:18.656Z,2.67
2023-03-16T05:58:21.177Z,2.90
2023-03-16T06:02:22.879Z,1.77
2023-03-16T06:06:24.361Z,1.75
2023-03-16T06:10:26.836Z,2.00
2023-03-16T06:14:30.271Z,1.98
2023-03-16T06:18:33.233Z,2.85
2023-03-16T06:22:34.698Z,2.28
2023-03-16T06:26:36.897Z,2.17
2023-03-16T06:30:39.216Z,2.33
2023-03-16T06:34:41.657Z,2.45
2023-03-16T06:38:43.200Z,2.08
2023-03-16T06:42:46.823Z,3.03
2023-03-16T06:46:48.661Z,1.88
2023-03-16T06:50:50.171Z,2.40
2023-03-16T06:54:51.612Z,2.25
2023-03-16T06:58:53.098Z,2.50
2023-03-16T07:02:54.619Z,2.13
2023-03-16T07:06:56.124Z,2.97
2023-03-16T07:10:57.639Z,2.40
2023-03-16T07:14:59.039Z,2.72
2023-03-16T07:19:00.483Z,1.80
2023-03-16T07:23:01.963Z,2.30
2023-03-16T07:27:03.515Z,2.00
2023-03-16T07:31:05.819Z,2.22
2023-03-16T07:35:09.058Z,1.73
2023-03-16T07:39:14.260Z,2.38
2023-03-16T07:43:15.766Z,3.13
2023-03-16T07:47:17.804Z,2.17
2023-03-16T07:51:19.235Z,2.03
2023-03-16T07:55:20.900Z,2.35
2023-03-16T07:59:23.114Z,2.53
2023-03-16T08:03:25.738Z,2.38
2023-03-16T08:07:27.396Z,2.35
2023-03-16T08:11:28.888Z,2.38
2023-03-16T08:15:33.788Z,1.73
2023-03-16T08:19:35.359Z,1.65
2023-03-16T08:23:37.203Z,1.85
2023-03-16T08:27:38.752Z,1.95
2023-03-16T08:31:42.773Z,1.98
2023-03-16T08:35:45.100Z,1.70
2023-03-16T08:39:46.554Z,1.40
2023-03-16T08:43:48.435Z,1.90
2023-03-16T08:47:51.127Z,1.65
2023-03-16T08:51:54.118Z,1.60
2023-03-16T08:56:03.371Z,1.30
2023-03-16T09:00:12.795Z,1.58
2023-03-16T09:04:14.929Z,1.80
2023-03-16T09:08:16.689Z,1.77
2023-03-16T09:12:18.671Z,1.30
2023-03-16T09:16:21.065Z,1.70
2023-03-16T09:20:26.704Z,1.30
2023-03-16T09:24:31.029Z,1.38
2023-03-16T09:28:33.061Z,1.45
2023-03-16T09:32:37.257Z,1.45
2023-03-16T09:36:39.314Z,1.40
2023-03-16T09:40:41.476Z,1.23
2023-03-16T09:45:13.846Z,1.20
2023-03-16T09:49:18.575Z,1.73
2023-03-16T09:53:36.083Z,1.50
2023-03-16T09:57:58.708Z,1.20
2023-03-16T10:02:56.596Z,1.73
2023-03-16T10:07:18.811Z,1.38
2023-03-16T10:11:29.335Z,1.50
2023-03-16T10:15:35.879Z,1.67
2023-03-16T10:19:51.655Z,2.88
2023-03-16T10:24:02.006Z,1.70
2023-03-16T10:28:03.606Z,1.20
2023-03-16T10:32:21.432Z,1.70
2023-03-16T10:36:33.540Z,1.50
2023-03-16T10:40:39.724Z,1.42
2023-03-16T10:44:41.187Z,1.48
2023-03-16T10:48:43.490Z,1.38
2023-03-16T10:52:48.140Z,1.40
2023-03-16T10:56:50.631Z,1.40
2023-03-16T11:00:53.448Z,1.70
2023-03-16T11:04:55.994Z,1.17
2023-03-16T11:09:09.449Z,1.02
2023-03-16T11:13:19.721Z,1.50
2023-03-16T11:17:37.142Z,1.13
2023-03-16T11:21:54.986Z,1.17
2023-03-16T11:26:01.912Z,0.77
2023-03-16T11:30:27.103Z,1.30
2023-03-16T11:34:30.824Z,1.20
2023-03-16T11:38:41.985Z,1.10
2023-03-16T11:43:20.797Z,1.08
2023-03-16T11:48:13.032Z,1.10
2023-03-16T11:52:17.301Z,0.98
2023-03-16T11:56:24.844Z,1.10
2023-03-16T12:00:45.549Z,1.10
2023-03-16T12:04:50.882Z,1.45
2023-03-16T12:09:15.531Z,1.02
2023-03-16T12:13:22.897Z,1.00
2023-03-16T12:17:30.503Z,1.20
2023-03-16T12:21:37.717Z,1.42
2023-03-16T12:25:42.761Z,1.00
2023-03-16T12:29:59.615Z,0.90
2023-03-16T12:34:15.396Z,0.90
2023-03-16T12:38:44.979Z,1.27
2023-03-16T12:42:52.262Z,1.40
2023-03-16T12:47:06.881Z,1.00
2023-03-16T12:51:08.607Z,0.80
2023-03-16T12:55:20.829Z,1.55
2023-03-16T12:59:25.916Z,0.90
2023-03-16T13:03:28.425Z,1.23
2023-03-16T13:07:31.794Z,1.10
2023-03-16T13:11:47.401Z,0.90
2023-03-16T13:15:49.641Z,1.00
2023-03-16T13:20:20.997Z,1.08
2023-03-16T13:24:38.744Z,0.80
2023-03-16T13:28:40.752Z,1.02
2023-03-16T13:32:42.397Z,1.10
2023-03-16T13:36:45.418Z,0.82
2023-03-16T13:40:51.483Z,0.85
2023-03-16T13:44:57.776Z,0.80
2023-03-16T13:49:02.693Z,0.90
2023-03-16T13:53:10.703Z,0.77
2023-03-16T13:57:13.526Z,1.00
2023-03-16T14:01:27.373Z,0.70
2023-03-16T14:05:33.038Z,0.80
2023-03-16T14:09:35.603Z,0.77
2023-03-16T14:13:39.174Z,1.02
2023-03-16T14:17:43.042Z,0.82
2023-03-16T14:21:46.007Z,0.75
2023-03-16T14:25:48.888Z,1.23
2023-03-16T14:30:01.643Z,1.60
2023-03-16T14:34:21.203Z,0.88
2023-03-16T14:38:38.534Z,0.88
2023-03-16T14:42:40.256Z,0.95
2023-03-16T14:46:42.698Z,1.00
2023-03-16T14:50:44.500Z,1.30
2023-03-16T14:54:46.803Z,0.80
2023-03-16T14:58:48.325Z,0.73
2023-03-16T15:03:12.793Z,0.80
2023-03-16T15:07:27.154Z,1.10
2023-03-16T15:11:29.446Z,0.95
2023-03-16T15:15:31.759Z,1.05
2023-03-16T15:19:33.190Z,0.65
2023-03-16T15:23:34.612Z,0.80
2023-03-16T15:27:36.620Z,0.75
2023-03-16T15:31:38.088Z,0.80
2023-03-16T15:35:41.052Z,0.68
2023-03-16T15:39:43.880Z,0.82
2023-03-16T15:43:45.840Z,1.13
2023-03-16T15:47:48.906Z,0.85
2023-03-16T15:51:50.357Z,1.20
2023-03-16T15:55:59.454Z,0.75
2023-03-16T16:00:01.603Z,1.00
2023-03-16T16:04:04.266Z,0.90
2023-03-16T16:08:05.949Z,1.55
2023-03-16T16:12:12.498Z,0.73
2023-03-16T16:16:17.650Z,0.80
2023-03-16T16:20:22.775Z,0.82
2023-03-16T16:24:25.146Z,0.90
2023-03-16T16:28:30.783Z,0.80
2023-03-16T16:32:32.210Z,1.23
2023-03-16T16:36:33.631Z,0.93
2023-03-16T16:40:39.456Z,0.90
2023-03-16T16:44:42.314Z,1.50
2023-03-16T16:49:17.703Z,1.30
2023-03-16T16:53:23.519Z,1.50
2023-03-16T16:57:24.984Z,1.58
2023-03-16T17:01:33.122Z,1.60
2023-03-16T17:05:34.594Z,1.33
2023-03-16T17:09:36.608Z,0.93
2023-03-16T17:13:40.497Z,1.55
2023-03-16T17:17:41.935Z,1.05
2023-03-16T17:21:43.974Z,1.30
2023-03-16T17:25:45.451Z,0.98
2023-03-16T17:29:47.464Z,1.20
2023-03-16T17:33:51.266Z,1.70
2023-03-16T17:37:52.828Z,1.05
2023-03-16T17:41:58.777Z,1.17
2023-03-16T17:46:04.423Z,1.05
2023-03-16T17:50:35.585Z,1.38
2023-03-16T17:54:37.281Z,1.17
2023-03-16T17:58:40.309Z,1.55
2023-03-16T18:02:51.572Z,1.10
2023-03-16T18:06:53.458Z,1.02
2023-03-16T18:11:04.187Z,1.35
2023-03-16T18:15:06.078Z,1.40
2023-03-16T18:19:20.641Z,1.15
2023-03-16T18:23:25.183Z,1.48
2023-03-16T18:27:27.113Z,1.20
2023-03-16T18:31:28.789Z,1.50
2023-03-16T18:35:30.981Z,1.20
2023-03-16T18:39:33.183Z,1.17
2023-03-16T18:43:34.654Z,1.52
2023-03-16T18:47:37.094Z,1.13
2023-03-16T18:51:39.067Z,1.35
2023-03-16T18:55:44.852Z,1.30
2023-03-16T18:59:47.095Z,1.08
2023-03-16T19:03:48.819Z,1.35
2023-03-16T19:07:52.460Z,1.50
2023-03-16T19:11:54.013Z,1.50
2023-03-16T19:15:57.847Z,1.00
2023-03-16T19:19:59.368Z,1.55
2023-03-16T19:24:04.087Z,1.50
2023-03-16T19:28:07.706Z,1.90
2023-03-16T19:32:17.561Z,1.75
2023-03-16T19:36:23.297Z,1.55
2023-03-16T19:40:25.417Z,1.40
2023-03-16T19:44:28.480Z,1.75
2023-03-16T19:48:33.740Z,1.77
2023-03-16T19:52:35.208Z,2.03
2023-03-16T19:56:37.224Z,1.48
2023-03-16T20:00:38.953Z,2.05
2023-03-16T20:04:40.490Z,3.05
2023-03-16T20:08:44.005Z,2.80
2023-03-16T20:12:45.874Z,2.10
2023-03-16T20:16:48.226Z,1.65
2023-03-16T20:20:49.924Z,1.55
2023-03-16T20:24:52.398Z,1.40
2023-03-16T20:28:54.043Z,1.15
2023-03-16T20:32:55.753Z,1.35
2023-03-16T20:36:58.288Z,1.58
2023-03-16T20:41:00.793Z,1.35
2023-03-16T20:45:02.900Z,1.40
2023-03-16T20:49:05.953Z,1.50
2023-03-16T20:53:08.515Z,1.77
2023-03-16T20:57:30.360Z,1.58
2023-03-16T21:01:32.068Z,1.77
2023-03-16T21:05:33.814Z,1.60
2023-03-16T21:09:35.257Z,1.67
2023-03-16T21:13:36.786Z,1.80
2023-03-16T21:17:39.168Z,2.20
2023-03-16T21:21:41.342Z,1.95
2023-03-16T21:26:10.152Z,2.08
2023-03-16T21:30:22.364Z,2.17
2023-03-16T21:34:28.234Z,1.95
2023-03-16T21:38:31.455Z,1.95
2023-03-16T21:42:33.068Z,1.80
2023-03-16T21:46:34.572Z,2.40
2023-03-16T21:50:36.728Z,2.45
2023-03-16T21:54:38.212Z,2.38
2023-03-16T21:58:39.733Z,2.40
2023-03-16T22:02:42.046Z,2.10
2023-03-16T22:06:45.903Z,2.25
2023-03-16T22:10:47.623Z,2.40
2023-03-16T22:14:49.327Z,1.67
2023-03-16T22:18:56.151Z,2.08
2023-03-16T22:22:58.628Z,2.55
2023-03-16T22:27:00.146Z,1.80
2023-03-16T22:31:03.784Z,2.28
2023-03-16T22:35:05.567Z,2.33
2023-03-16T22:39:12.274Z,1.80
2023-03-16T22:43:17.777Z,2.10
2023-03-16T22:47:24.337Z,2.30
2023-03-16T22:51:32.774Z,2.08
2023-03-16T22:55:38.081Z,2.55
2023-03-16T22:59:39.764Z,2.33
2023-03-16T23:03:41.376Z,2.75
2023-03-16T23:07:42.773Z,2.08
2023-03-16T23:11:45.961Z,2.38
2023-03-16T23:15:49.244Z,2.15
2023-03-16T23:19:51.820Z,2.25
2023-03-16T23:24:03.414Z,2.38
2023-03-16T23:28:05.770Z,2.58
2023-03-16T23:32:10.400Z,2.25
2023-03-16T23:36:16.824Z,2.63
2023-03-16T23:40:21.076Z,2.20
2023-03-16T23:44:26.329Z,2.10
2023-03-16T23:48:28.030Z,2.53
2023-03-16T23:52:29.550Z,2.90
2023-03-16T23:56:31.118Z,1.98
